createdAt,value
2023-01-26T00:01:25.095Z,-0.20
2023-01-26T00:03:51.918Z,-0.10
2023-01-26T00:06:20.547Z,-0.20
2023-01-26T00:08:59.126Z,-0.20
2023-01-26T00:11:27.854Z,-0.20
2023-01-26T00:13:56.271Z,-0.20
2023-01-26T00:16:23.163Z,-0.20
2023-01-26T00:18:50.482Z,-0.20
2023-01-26T00:21:24.729Z,-0.30
2023-01-26T00:23:52.607Z,-0.20
2023-01-26T00:26:24.697Z,-0.20
2023-01-26T00:28:52.374Z,-0.20
2023-01-26T00:31:24.850Z,-0.20
2023-01-26T00:33:53.174Z,-0.20
2023-01-26T00:36:20.253Z,-0.20
2023-01-26T00:38:47.119Z,-0.30
2023-01-26T00:41:34.436Z,-0.20
2023-01-26T00:44:01.724Z,-0.20
2023-01-26T00:46:29.297Z,-0.30
2023-01-26T00:48:56.306Z,-0.30
2023-01-26T00:51:23.293Z,-0.30
2023-01-26T00:53:50.009Z,-0.20
2023-01-26T00:56:16.716Z,-0.30
2023-01-26T00:58:45.462Z,-0.30
2023-01-26T01:01:12.345Z,-0.30
2023-01-26T01:03:39.083Z,-0.30
2023-01-26T01:06:05.883Z,-0.30
2023-01-26T01:08:32.586Z,-0.30
2023-01-26T01:11:11.109Z,-0.30
2023-01-26T01:13:38.802Z,-0.30
2023-01-26T01:16:11.303Z,-0.20
2023-01-26T01:18:38.343Z,-0.20
2023-01-26T01:21:09.359Z,-0.20
2023-01-26T01:23:36.330Z,-0.20
2023-01-26T01:26:04.484Z,-0.20
2023-01-26T01:28:32.283Z,-0.20
2023-01-26T01:30:59.294Z,-0.20
2023-01-26T01:33:26.160Z,-0.10
2023-01-26T01:35:57.270Z,-0.20
2023-01-26T01:38:24.062Z,-0.20
2023-01-26T01:40:51.272Z,-0.10
2023-01-26T01:43:18.209Z,-0.10
2023-01-26T01:45:47.297Z,-0.10
2023-01-26T01:48:43.627Z,-0.10
2023-01-26T01:51:36.483Z,-0.10
2023-01-26T01:54:08.470Z,-0.10
2023-01-26T01:56:37.215Z,-0.10
2023-01-26T01:59:07.351Z,-0.10
2023-01-26T02:01:34.384Z,-0.10
2023-01-26T02:04:04.620Z,-0.20
2023-01-26T02:06:35.035Z,-0.10
2023-01-26T02:09:03.390Z,-0.10
2023-01-26T02:11:36.262Z,-0.10
2023-01-26T02:14:25.243Z,-0.20
2023-01-26T02:16:52.067Z,-0.10
2023-01-26T02:19:38.890Z,-0.10
2023-01-26T02:22:16.703Z,-0.10
2023-01-26T02:24:44.076Z,-0.10
2023-01-26T02:27:11.044Z,-0.10
2023-01-26T02:29:38.194Z,0.00
2023-01-26T02:32:05.089Z,-0.10
2023-01-26T02:34:31.878Z,-0.10
2023-01-26T02:36:59.910Z,-0.10
2023-01-26T02:39:47.486Z,-0.10
2023-01-26T02:42:32.712Z,-0.10
2023-01-26T02:44:59.570Z,0.00
2023-01-26T02:47:26.287Z,-0.10
2023-01-26T02:49:53.026Z,-0.10
2023-01-26T02:52:22.843Z,-0.10
2023-01-26T02:55:08.241Z,-0.10
2023-01-26T02:57:35.382Z,-0.10
2023-01-26T03:00:03.693Z,-0.10
2023-01-26T03:02:30.491Z,-0.10
2023-01-26T03:04:57.252Z,-0.10
2023-01-26T03:07:26.746Z,-0.20
2023-01-26T03:09:53.508Z,-0.20
2023-01-26T03:12:20.207Z,-0.20
2023-01-26T03:15:06.881Z,-0.20
2023-01-26T03:17:33.570Z,-0.30
2023-01-26T03:20:19.028Z,-0.30
2023-01-26T03:23:04.299Z,-0.30
2023-01-26T03:25:49.816Z,-0.30
2023-01-26T03:28:22.214Z,-0.30
2023-01-26T03:30:49.957Z,-0.30
2023-01-26T03:33:17.675Z,-0.30
2023-01-26T03:35:44.924Z,-0.30
2023-01-26T03:38:12.125Z,-0.30
2023-01-26T03:40:58.033Z,-0.30
2023-01-26T03:43:43.601Z,-0.30
2023-01-26T03:46:29.220Z,-0.30
2023-01-26T03:49:14.610Z,-0.30
2023-01-26T03:52:00.092Z,-0.30
2023-01-26T03:54:45.643Z,-0.30
2023-01-26T03:57:12.541Z,-0.30
2023-01-26T03:59:39.363Z,-0.30
2023-01-26T04:02:26.492Z,-0.20
2023-01-26T04:05:12.176Z,-0.30
2023-01-26T04:07:57.857Z,-0.30
2023-01-26T04:10:25.344Z,-0.30
2023-01-26T04:13:10.790Z,-0.30
2023-01-26T04:15:56.761Z,-0.30
2023-01-26T04:18:42.293Z,-0.20
2023-01-26T04:21:28.226Z,-0.20
2023-01-26T04:23:58.754Z,-0.30
2023-01-26T04:26:35.734Z,-0.30
2023-01-26T04:29:13.161Z,-0.30
2023-01-26T04:31:40.761Z,-0.30
2023-01-26T04:34:12.323Z,-0.30
2023-01-26T04:36:39.957Z,-0.30
2023-01-26T04:39:07.055Z,-0.30
2023-01-26T04:41:34.240Z,-0.30
2023-01-26T04:44:01.538Z,-0.20
2023-01-26T04:46:28.366Z,-0.20
2023-01-26T04:48:55.132Z,-0.20
2023-01-26T04:51:22.689Z,-0.20
2023-01-26T04:53:50.073Z,-0.20
2023-01-26T04:56:26.009Z,-0.20
2023-01-26T04:58:53.733Z,-0.20
2023-01-26T05:01:20.874Z,-0.20
2023-01-26T05:03:47.962Z,-0.20
2023-01-26T05:06:14.923Z,-0.20
2023-01-26T05:08:41.750Z,-0.20
2023-01-26T05:11:08.689Z,-0.20
2023-01-26T05:13:36.055Z,-0.20
2023-01-26T05:16:03.945Z,-0.20
2023-01-26T05:18:30.912Z,-0.20
2023-01-26T05:20:58.234Z,-0.20
2023-01-26T05:23:25.361Z,-0.20
2023-01-26T05:25:52.184Z,-0.30
2023-01-26T05:28:19.105Z,-0.30
2023-01-26T05:30:46.862Z,-0.20
2023-01-26T05:33:13.730Z,-0.20
2023-01-26T05:35:40.477Z,-0.20
2023-01-26T05:38:07.197Z,-0.20
2023-01-26T05:40:33.940Z,-0.20
2023-01-26T05:43:00.894Z,-0.20
2023-01-26T05:45:27.876Z,-0.20
2023-01-26T05:47:54.708Z,-0.20
2023-01-26T05:50:21.666Z,-0.20
2023-01-26T05:52:49.869Z,-0.20
2023-01-26T05:55:16.721Z,-0.20
2023-01-26T05:57:43.504Z,-0.20
2023-01-26T06:00:11.790Z,-0.20
2023-01-26T06:02:38.977Z,-0.20
2023-01-26T06:05:06.489Z,-0.20
2023-01-26T06:07:33.264Z,-0.30
2023-01-26T06:10:00.178Z,-0.30
2023-01-26T06:12:31.546Z,-0.30
2023-01-26T06:14:58.877Z,-0.30
2023-01-26T06:17:25.696Z,-0.20
2023-01-26T06:19:52.429Z,-0.20
2023-01-26T06:22:19.575Z,-0.20
2023-01-26T06:24:47.175Z,-0.20
2023-01-26T06:27:15.891Z,-0.20
2023-01-26T06:29:43.335Z,-0.20
2023-01-26T06:32:16.207Z,-0.20
2023-01-26T06:34:43.044Z,-0.20
2023-01-26T06:37:10.943Z,-0.20
2023-01-26T06:39:37.794Z,-0.20
2023-01-26T06:42:04.871Z,-0.20
2023-01-26T06:44:31.578Z,-0.20
2023-01-26T06:46:58.275Z,-0.20
2023-01-26T06:49:25.015Z,-0.20
2023-01-26T06:52:03.158Z,-0.20
2023-01-26T06:54:29.909Z,-0.10
2023-01-26T06:56:56.700Z,-0.20
2023-01-26T06:59:23.447Z,-0.10
2023-01-26T07:01:50.187Z,-0.10
2023-01-26T07:04:18.412Z,-0.10
2023-01-26T07:06:45.366Z,-0.20
2023-01-26T07:09:12.264Z,-0.20
2023-01-26T07:11:39.089Z,-0.10
2023-01-26T07:14:06.070Z,-0.20
2023-01-26T07:16:33.951Z,-0.20
2023-01-26T07:19:01.296Z,-0.20
2023-01-26T07:21:28.136Z,-0.20
2023-01-26T07:23:56.143Z,-0.10
2023-01-26T07:26:23.088Z,-0.10
2023-01-26T07:28:49.879Z,0.00
2023-01-26T07:31:16.796Z,-0.10
2023-01-26T07:33:43.635Z,-0.10
2023-01-26T07:36:11.133Z,-0.10
2023-01-26T07:38:38.359Z,-0.10
2023-01-26T07:41:07.809Z,-0.10
2023-01-26T07:43:36.387Z,-0.10
2023-01-26T07:46:03.384Z,-0.10
2023-01-26T07:48:30.792Z,-0.10
2023-01-26T07:51:04.844Z,-0.10
2023-01-26T07:53:34.181Z,-0.10
2023-01-26T07:56:08.050Z,-0.10
2023-01-26T07:58:36.193Z,-0.10
2023-01-26T08:01:21.997Z,-0.20
2023-01-26T08:03:51.203Z,-0.20
2023-01-26T08:06:18.585Z,-0.20
2023-01-26T08:08:50.934Z,-0.20
2023-01-26T08:11:19.408Z,-0.20
2023-01-26T08:13:46.105Z,-0.20
2023-01-26T08:16:13.201Z,-0.10
2023-01-26T08:18:41.990Z,-0.10
2023-01-26T08:21:10.179Z,-0.10
2023-01-26T08:23:37.184Z,-0.10
2023-01-26T08:26:06.139Z,-0.10
2023-01-26T08:28:33.791Z,-0.10
2023-01-26T08:31:20.946Z,0.00
2023-01-26T08:33:53.343Z,0.10
2023-01-26T08:36:22.534Z,0.10
2023-01-26T08:38:50.220Z,0.10
2023-01-26T08:41:16.953Z,0.10
2023-01-26T08:43:43.694Z,0.10
2023-01-26T08:46:10.857Z,0.10
2023-01-26T08:48:38.622Z,0.20
2023-01-26T08:51:07.042Z,0.20
2023-01-26T08:53:37.418Z,0.30
2023-01-26T08:56:10.252Z,0.30
2023-01-26T08:58:37.410Z,0.30
2023-01-26T09:01:10.477Z,0.30
2023-01-26T09:03:37.809Z,0.30
2023-01-26T09:06:06.510Z,0.30
2023-01-26T09:08:33.215Z,0.30
2023-01-26T09:11:00.499Z,0.30
2023-01-26T09:13:27.413Z,0.30
2023-01-26T09:15:54.311Z,0.30
2023-01-26T09:18:21.125Z,0.40
2023-01-26T09:20:47.899Z,0.30
2023-01-26T09:23:16.908Z,0.30
2023-01-26T09:25:43.741Z,0.30
2023-01-26T09:28:10.645Z,0.30
2023-01-26T09:30:37.407Z,0.30
2023-01-26T09:33:06.040Z,0.30
2023-01-26T09:35:33.151Z,0.30
2023-01-26T09:37:59.968Z,0.20
2023-01-26T09:40:43.759Z,0.20
2023-01-26T09:43:41.744Z,0.20
2023-01-26T09:46:40.523Z,0.10
2023-01-26T09:49:13.918Z,0.10
2023-01-26T09:51:43.565Z,0.10
2023-01-26T09:54:26.815Z,0.20
2023-01-26T09:56:55.842Z,0.20
2023-01-26T09:59:28.624Z,0.20
2023-01-26T10:02:13.412Z,0.30
2023-01-26T10:04:44.114Z,0.40
2023-01-26T10:07:13.055Z,0.40
2023-01-26T10:09:43.356Z,0.40
2023-01-26T10:12:34.415Z,0.40
2023-01-26T10:15:19.877Z,0.40
2023-01-26T10:17:49.480Z,0.40
2023-01-26T10:20:37.376Z,0.40
2023-01-26T10:23:24.611Z,0.50
2023-01-26T10:25:54.186Z,0.50
2023-01-26T10:28:28.765Z,0.50
2023-01-26T10:30:55.970Z,0.60
2023-01-26T10:33:33.349Z,0.50
2023-01-26T10:36:05.216Z,0.60
2023-01-26T10:38:37.870Z,0.60
2023-01-26T10:41:20.078Z,0.60
2023-01-26T10:43:56.191Z,0.60
2023-01-26T10:46:38.049Z,0.50
2023-01-26T10:49:14.623Z,0.50
2023-01-26T10:51:45.213Z,0.50
2023-01-26T10:54:24.101Z,0.50
2023-01-26T10:56:57.241Z,0.40
2023-01-26T10:59:50.514Z,0.30
2023-01-26T11:02:20.175Z,0.30
2023-01-26T11:05:08.695Z,0.30
2023-01-26T11:07:38.656Z,0.40
2023-01-26T11:10:28.201Z,0.30
2023-01-26T11:13:21.452Z,0.30
2023-01-26T11:15:52.361Z,0.30
2023-01-26T11:18:55.671Z,0.30
2023-01-26T11:21:45.385Z,0.20
2023-01-26T11:24:39.856Z,0.20
2023-01-26T11:27:13.449Z,0.20
2023-01-26T11:30:01.988Z,0.10
2023-01-26T11:32:38.292Z,0.10
2023-01-26T11:35:26.397Z,0.10
2023-01-26T11:38:33.367Z,0.10
2023-01-26T11:41:20.168Z,0.20
2023-01-26T11:44:03.232Z,0.30
2023-01-26T11:46:52.398Z,0.30
2023-01-26T11:49:34.641Z,0.30
2023-01-26T11:52:10.139Z,0.40
2023-01-26T11:54:43.040Z,0.40
2023-01-26T11:57:15.799Z,0.40
2023-01-26T11:59:57.276Z,0.50
2023-01-26T12:02:42.081Z,0.40
2023-01-26T12:05:31.459Z,0.40
2023-01-26T12:08:06.099Z,0.40
2023-01-26T12:11:25.228Z,0.40
2023-01-26T12:14:22.288Z,0.40
2023-01-26T12:17:18.033Z,0.40
2023-01-26T12:19:45.255Z,0.50
2023-01-26T12:22:19.512Z,0.50
2023-01-26T12:25:20.847Z,0.50
2023-01-26T12:27:48.713Z,0.40
2023-01-26T12:30:41.462Z,0.50
2023-01-26T12:33:10.817Z,0.50
2023-01-26T12:35:58.393Z,0.60
2023-01-26T12:38:44.984Z,0.60
2023-01-26T12:41:29.795Z,0.70
2023-01-26T12:43:56.444Z,0.70
2023-01-26T12:46:27.022Z,0.70
2023-01-26T12:49:01.784Z,0.70
2023-01-26T12:51:37.182Z,0.80
2023-01-26T12:54:18.352Z,0.80
2023-01-26T12:56:50.464Z,0.70
2023-01-26T12:59:47.872Z,0.70
2023-01-26T13:02:29.291Z,0.80
2023-01-26T13:04:59.295Z,0.70
2023-01-26T13:07:33.876Z,0.70
2023-01-26T13:10:16.230Z,0.80
2023-01-26T13:12:55.932Z,0.80
2023-01-26T13:15:26.033Z,0.80
2023-01-26T13:18:04.156Z,0.70
2023-01-26T13:20:40.108Z,0.70
2023-01-26T13:23:40.297Z,0.70
2023-01-26T13:26:33.584Z,0.70
2023-01-26T13:29:25.178Z,0.70
2023-01-26T13:31:52.776Z,0.70
2023-01-26T13:34:32.240Z,0.60
2023-01-26T13:37:08.155Z,0.60
2023-01-26T13:39:37.052Z,0.50
2023-01-26T13:42:16.517Z,0.50
2023-01-26T13:44:51.120Z,0.50
2023-01-26T13:47:36.080Z,0.50
2023-01-26T13:50:33.966Z,0.50
2023-01-26T13:53:01.066Z,0.40
2023-01-26T13:55:31.477Z,0.40
2023-01-26T13:58:30.704Z,0.30
2023-01-26T14:01:06.432Z,0.30
2023-01-26T14:03:33.727Z,0.30
2023-01-26T14:06:02.219Z,0.30
2023-01-26T14:08:31.009Z,0.20
2023-01-26T14:10:59.423Z,0.20
2023-01-26T14:13:31.456Z,0.20
2023-01-26T14:16:01.065Z,0.20
2023-01-26T14:18:28.703Z,0.20
2023-01-26T14:21:14.307Z,0.20
2023-01-26T14:23:41.037Z,0.10
2023-01-26T14:26:30.614Z,0.10
2023-01-26T14:29:00.366Z,0.00
2023-01-26T14:31:29.328Z,0.00
2023-01-26T14:33:58.852Z,0.00
2023-01-26T14:36:33.147Z,0.00
2023-01-26T14:39:01.165Z,0.00
2023-01-26T14:41:31.786Z,0.00
2023-01-26T14:44:04.171Z,-0.10
2023-01-26T14:46:36.730Z,-0.10
2023-01-26T14:49:17.891Z,-0.10
2023-01-26T14:51:46.657Z,-0.10
2023-01-26T14:54:25.805Z,-0.10
2023-01-26T14:56:52.760Z,-0.20
2023-01-26T14:59:25.611Z,-0.10
2023-01-26T15:02:14.573Z,-0.20
2023-01-26T15:04:45.807Z,-0.20
2023-01-26T15:07:31.046Z,-0.20
2023-01-26T15:09:57.771Z,-0.20
2023-01-26T15:12:24.709Z,-0.30
2023-01-26T15:14:57.029Z,-0.20
2023-01-26T15:17:38.705Z,-0.20
2023-01-26T15:20:23.773Z,-0.30
2023-01-26T15:22:52.684Z,-0.20
2023-01-26T15:25:27.929Z,-0.30
2023-01-26T15:27:59.586Z,-0.30
2023-01-26T15:30:29.155Z,-0.30
2023-01-26T15:32:56.067Z,-0.30
2023-01-26T15:35:26.857Z,-0.30
2023-01-26T15:38:03.616Z,-0.30
2023-01-26T15:40:30.951Z,-0.30
2023-01-26T15:43:15.011Z,-0.30
2023-01-26T15:45:54.283Z,-0.30
2023-01-26T15:48:22.049Z,-0.30
2023-01-26T15:50:48.918Z,-0.30
2023-01-26T15:53:19.965Z,-0.30
2023-01-26T15:55:52.992Z,-0.30
2023-01-26T15:58:20.153Z,-0.30
2023-01-26T16:00:47.463Z,-0.30
2023-01-26T16:03:19.098Z,-0.30
2023-01-26T16:05:50.159Z,-0.30
2023-01-26T16:08:18.580Z,-0.40
2023-01-26T16:10:46.518Z,-0.40
2023-01-26T16:13:17.905Z,-0.40
2023-01-26T16:15:46.571Z,-0.40
2023-01-26T16:18:13.464Z,-0.40
2023-01-26T16:20:42.359Z,-0.50
2023-01-26T16:23:21.084Z,-0.40
2023-01-26T16:25:48.415Z,-0.50
2023-01-26T16:28:15.542Z,-0.50
2023-01-26T16:30:43.963Z,-0.50
2023-01-26T16:33:16.087Z,-0.50
2023-01-26T16:35:43.226Z,-0.50
2023-01-26T16:38:13.169Z,-0.50
2023-01-26T16:40:45.480Z,-0.50
2023-01-26T16:43:22.034Z,-0.50
2023-01-26T16:45:50.478Z,-0.50
2023-01-26T16:48:17.654Z,-0.60
2023-01-26T16:50:45.393Z,-0.60
2023-01-26T16:53:33.080Z,-0.60
2023-01-26T16:55:59.821Z,-0.60
2023-01-26T16:58:27.020Z,-0.60
2023-01-26T17:00:55.322Z,-0.60
2023-01-26T17:03:22.476Z,-0.70
2023-01-26T17:05:50.595Z,-0.70
2023-01-26T17:08:17.468Z,-0.80
2023-01-26T17:11:00.606Z,-0.70
2023-01-26T17:13:28.204Z,-0.70
2023-01-26T17:15:56.559Z,-0.70
2023-01-26T17:18:23.485Z,-0.70
2023-01-26T17:20:50.205Z,-0.70
2023-01-26T17:23:16.917Z,-0.80
2023-01-26T17:25:43.660Z,-0.80
2023-01-26T17:28:10.461Z,-0.80
2023-01-26T17:30:37.732Z,-0.80
2023-01-26T17:33:04.455Z,-0.80
2023-01-26T17:35:31.192Z,-0.80
2023-01-26T17:37:57.918Z,-0.80
2023-01-26T17:40:24.609Z,-0.80
2023-01-26T17:42:51.358Z,-0.80
2023-01-26T17:45:18.083Z,-0.80
2023-01-26T17:47:44.909Z,-0.80
2023-01-26T17:50:11.647Z,-0.80
2023-01-26T17:52:38.425Z,-0.80
2023-01-26T17:55:06.312Z,-0.80
2023-01-26T17:57:33.926Z,-0.80
2023-01-26T18:00:00.705Z,-0.80
2023-01-26T18:02:27.515Z,-0.80
2023-01-26T18:04:54.292Z,-0.80
2023-01-26T18:07:21.104Z,-0.80
2023-01-26T18:09:47.956Z,-0.80
2023-01-26T18:12:14.674Z,-0.80
2023-01-26T18:14:41.929Z,-0.80
2023-01-26T18:17:08.684Z,-0.80
2023-01-26T18:19:35.467Z,-0.80
2023-01-26T18:22:02.291Z,-0.80
2023-01-26T18:24:29.064Z,-0.80
2023-01-26T18:26:55.804Z,-0.80
2023-01-26T18:29:22.521Z,-0.70
2023-01-26T18:31:49.424Z,-0.80
2023-01-26T18:34:16.258Z,-0.80
2023-01-26T18:36:42.967Z,-0.70
2023-01-26T18:39:13.732Z,-0.70
2023-01-26T18:41:40.884Z,-0.70
2023-01-26T18:44:08.342Z,-0.70
2023-01-26T18:46:35.190Z,-0.70
2023-01-26T18:49:03.501Z,-0.80
2023-01-26T18:51:32.693Z,-0.70
2023-01-26T18:53:59.911Z,-0.80
2023-01-26T18:56:27.033Z,-0.80
2023-01-26T18:58:54.130Z,-0.80
2023-01-26T19:01:22.170Z,-0.80
2023-01-26T19:03:54.852Z,-0.80
2023-01-26T19:06:23.796Z,-0.80
2023-01-26T19:08:58.478Z,-0.90
2023-01-26T19:11:30.910Z,-0.80
2023-01-26T19:13:58.729Z,-0.80
2023-01-26T19:16:25.944Z,-0.80
2023-01-26T19:18:55.369Z,-0.80
2023-01-26T19:21:24.616Z,-0.80
2023-01-26T19:23:53.243Z,-0.80
2023-01-26T19:26:23.010Z,-0.90
2023-01-26T19:28:50.986Z,-0.90
2023-01-26T19:31:19.798Z,-0.90
2023-01-26T19:33:51.099Z,-0.80
2023-01-26T19:36:18.217Z,-0.90
2023-01-26T19:38:45.159Z,-0.90
2023-01-26T19:41:12.400Z,-0.90
2023-01-26T19:43:39.440Z,-0.90
2023-01-26T19:46:08.395Z,-0.90
2023-01-26T19:48:35.290Z,-0.90
2023-01-26T19:51:05.371Z,-0.90
2023-01-26T19:53:34.500Z,-0.80
2023-01-26T19:56:10.459Z,-0.90
2023-01-26T19:58:37.525Z,-0.90
2023-01-26T20:01:09.886Z,-0.80
2023-01-26T20:03:37.052Z,-0.90
2023-01-26T20:06:04.953Z,-0.80
2023-01-26T20:08:32.389Z,-0.90
2023-01-26T20:11:06.133Z,-0.80
2023-01-26T20:13:34.294Z,-0.80
2023-01-26T20:16:02.050Z,-0.80
2023-01-26T20:18:28.846Z,-0.90
2023-01-26T20:20:56.481Z,-0.90
2023-01-26T20:23:24.576Z,-0.90
2023-01-26T20:25:51.763Z,-0.90
2023-01-26T20:28:19.087Z,-0.90
2023-01-26T20:30:45.891Z,-0.90
2023-01-26T20:33:12.826Z,-0.80
2023-01-26T20:35:40.751Z,-0.90
2023-01-26T20:38:07.493Z,-0.80
2023-01-26T20:40:34.221Z,-0.80
2023-01-26T20:43:02.496Z,-0.80
2023-01-26T20:45:29.665Z,-0.80
2023-01-26T20:47:56.481Z,-0.90
2023-01-26T20:50:23.192Z,-0.80
2023-01-26T20:52:49.944Z,-0.90
2023-01-26T20:55:16.899Z,-0.80
2023-01-26T20:57:43.683Z,-0.80
2023-01-26T21:00:11.591Z,-0.80
2023-01-26T21:02:38.552Z,-0.90
2023-01-26T21:05:07.193Z,-0.80
2023-01-26T21:07:33.968Z,-0.90
2023-01-26T21:10:00.692Z,-0.90
2023-01-26T21:12:28.103Z,-0.90
2023-01-26T21:14:54.790Z,-0.90
2023-01-26T21:17:22.797Z,-0.90
2023-01-26T21:19:49.935Z,-0.90
2023-01-26T21:22:16.807Z,-0.90
2023-01-26T21:24:43.545Z,-0.90
2023-01-26T21:27:10.299Z,-0.90
2023-01-26T21:29:40.288Z,-0.90
2023-01-26T21:32:07.625Z,-0.90
2023-01-26T21:34:34.666Z,-0.90
2023-01-26T21:37:01.408Z,-0.90
2023-01-26T21:39:28.221Z,-0.90
2023-01-26T21:41:58.970Z,-0.90
2023-01-26T21:44:28.215Z,-0.90
2023-01-26T21:47:00.683Z,-0.90
2023-01-26T21:49:30.850Z,-0.80
2023-01-26T21:52:16.729Z,-0.90
2023-01-26T21:54:43.501Z,-0.80
2023-01-26T21:57:29.975Z,-0.90
2023-01-26T21:59:56.845Z,-0.70
2023-01-26T22:02:24.008Z,-0.90
2023-01-26T22:04:50.912Z,-0.90
2023-01-26T22:07:17.596Z,-0.90
2023-01-26T22:09:44.370Z,-0.90
2023-01-26T22:12:11.116Z,-0.90
2023-01-26T22:14:37.823Z,-0.80
2023-01-26T22:17:05.210Z,-0.80
2023-01-26T22:19:31.924Z,-0.80
2023-01-26T22:21:58.708Z,-0.80
2023-01-26T22:24:25.537Z,-0.80
2023-01-26T22:26:52.327Z,-0.80
2023-01-26T22:29:19.085Z,-0.80
2023-01-26T22:31:45.883Z,-0.80
2023-01-26T22:34:12.765Z,-0.90
2023-01-26T22:36:40.275Z,-0.90
2023-01-26T22:39:07.877Z,-0.80
2023-01-26T22:41:35.954Z,-0.80
2023-01-26T22:44:02.823Z,-0.80
2023-01-26T22:46:30.702Z,-0.90
2023-01-26T22:48:59.058Z,-0.80
2023-01-26T22:51:31.454Z,-0.80
2023-01-26T22:53:59.358Z,-0.80
2023-01-26T22:56:27.014Z,-1.00
2023-01-26T22:58:58.525Z,-0.80
2023-01-26T23:01:28.592Z,-0.80
2023-01-26T23:03:56.522Z,-0.80
2023-01-26T23:06:24.176Z,-0.80
2023-01-26T23:08:50.954Z,-0.80
2023-01-26T23:11:25.570Z,-0.80
2023-01-26T23:13:54.333Z,-0.80
2023-01-26T23:16:23.490Z,-0.80
2023-01-26T23:18:55.263Z,-0.80
2023-01-26T23:21:22.542Z,-0.70
2023-01-26T23:23:49.434Z,-0.80
2023-01-26T23:26:16.610Z,-0.70
2023-01-26T23:28:44.156Z,-0.70
2023-01-26T23:31:13.159Z,-0.70
2023-01-26T23:33:40.588Z,-0.70
2023-01-26T23:36:08.586Z,-0.70
2023-01-26T23:38:35.591Z,-0.70
2023-01-26T23:41:02.854Z,-0.70
2023-01-26T23:43:29.585Z,-0.70
2023-01-26T23:45:56.879Z,-0.70
2023-01-26T23:48:24.404Z,-0.70
2023-01-26T23:51:05.420Z,-0.70
2023-01-26T23:53:32.962Z,-0.70
2023-01-26T23:56:03.421Z,-0.80
2023-01-26T23:58:30.123Z,-0.70
